sensor_id;sensor_type;location;lat;lon;timestamp;P1;durP1;ratioP1;P2;durP2;ratioP2
13564;SDS011;6854;48.096;11.278;2022-09-09T00:01:28;6.13;;;2.00;;
13564;SDS011;6854;48.096;11.278;2022-09-09T00:03:34;9.00;;;2.20;;
13564;SDS011;6854;48.096;11.278;2022-09-09T00:17:40;3.30;;;2.00;;
13564;SDS011;6854;48.096;11.278;2022-09-09T00:20:12;20.90;;;2.40;;
13564;SDS011;6854;48.096;11.278;2022-09-09T00:22:40;5.13;;;1.90;;
13564;SDS011;6854;48.096;11.278;2022-09-09T00:25:11;2.90;;;1.80;;
13564;SDS011;6854;48.096;11.278;2022-09-09T00:27:40;4.07;;;1.93;;
13564;SDS011;6854;48.096;11.278;2022-09-09T00:32:41;12.13;;;2.20;;
13564;SDS011;6854;48.096;11.278;2022-09-09T00:35:17;7.67;;;2.00;;
13564;SDS011;6854;48.096;11.278;2022-09-09T00:37:45;4.70;;;2.20;;
13564;SDS011;6854;48.096;11.278;2022-09-09T00:40:22;4.50;;;2.23;;
13564;SDS011;6854;48.096;11.278;2022-09-09T00:42:49;5.60;;;1.97;;
13564;SDS011;6854;48.096;11.278;2022-09-09T00:48:05;3.90;;;2.00;;
13564;SDS011;6854;48.096;11.278;2022-09-09T00:53:06;4.33;;;2.10;;
13564;SDS011;6854;48.096;11.278;2022-09-09T00:55:46;3.40;;;1.97;;
13564;SDS011;6854;48.096;11.278;2022-09-09T01:01:15;4.10;;;2.50;;
13564;SDS011;6854;48.096;11.278;2022-09-09T01:06:20;5.80;;;2.77;;
13564;SDS011;6854;48.096;11.278;2022-09-09T01:11:28;5.40;;;3.00;;
13564;SDS011;6854;48.096;11.278;2022-09-09T01:14:05;7.97;;;2.87;;
13564;SDS011;6854;48.096;11.278;2022-09-09T01:16:36;5.20;;;2.67;;
13564;SDS011;6854;48.096;11.278;2022-09-09T01:19:02;7.87;;;3.20;;
13564;SDS011;6854;48.096;11.278;2022-09-09T01:21:42;4.43;;;2.80;;
13564;SDS011;6854;48.096;11.278;2022-09-09T01:26:42;4.17;;;3.27;;
13564;SDS011;6854;48.096;11.278;2022-09-09T01:29:10;3.20;;;2.67;;
13564;SDS011;6854;48.096;11.278;2022-09-09T01:31:38;4.63;;;2.40;;
13564;SDS011;6854;48.096;11.278;2022-09-09T01:34:13;3.43;;;2.33;;
13564;SDS011;6854;48.096;11.278;2022-09-09T01:36:41;4.67;;;2.20;;
13564;SDS011;6854;48.096;11.278;2022-09-09T01:39:08;4.10;;;2.10;;
13564;SDS011;6854;48.096;11.278;2022-09-09T01:41:35;4.80;;;2.20;;
13564;SDS011;6854;48.096;11.278;2022-09-09T01:44:01;4.90;;;2.23;;
13564;SDS011;6854;48.096;11.278;2022-09-09T01:46:27;2.90;;;2.00;;
13564;SDS011;6854;48.096;11.278;2022-09-09T01:48:54;6.70;;;2.70;;
13564;SDS011;6854;48.096;11.278;2022-09-09T01:51:20;4.30;;;2.67;;
13564;SDS011;6854;48.096;11.278;2022-09-09T01:53:47;10.80;;;3.37;;
13564;SDS011;6854;48.096;11.278;2022-09-09T02:01:21;6.13;;;2.40;;
13564;SDS011;6854;48.096;11.278;2022-09-09T02:03:53;2.23;;;2.03;;
13564;SDS011;6854;48.096;11.278;2022-09-09T02:06:33;3.20;;;1.97;;
13564;SDS011;6854;48.096;11.278;2022-09-09T02:09:01;4.40;;;2.43;;
13564;SDS011;6854;48.096;11.278;2022-09-09T02:11:28;4.53;;;2.03;;
13564;SDS011;6854;48.096;11.278;2022-09-09T02:13:57;5.50;;;1.90;;
13564;SDS011;6854;48.096;11.278;2022-09-09T02:16:31;4.67;;;2.30;;
13564;SDS011;6854;48.096;11.278;2022-09-09T02:19:10;7.17;;;2.60;;
13564;SDS011;6854;48.096;11.278;2022-09-09T02:21:37;3.10;;;2.23;;
13564;SDS011;6854;48.096;11.278;2022-09-09T02:24:05;6.40;;;2.30;;
13564;SDS011;6854;48.096;11.278;2022-09-09T02:26:36;7.53;;;2.37;;
13564;SDS011;6854;48.096;11.278;2022-09-09T02:29:05;5.80;;;2.40;;
13564;SDS011;6854;48.096;11.278;2022-09-09T02:31:33;3.20;;;2.40;;
13564;SDS011;6854;48.096;11.278;2022-09-09T02:34:00;3.50;;;2.30;;
13564;SDS011;6854;48.096;11.278;2022-09-09T02:36:28;6.03;;;2.30;;
13564;SDS011;6854;48.096;11.278;2022-09-09T02:38:55;9.53;;;2.50;;
13564;SDS011;6854;48.096;11.278;2022-09-09T02:41:32;5.20;;;2.43;;
13564;SDS011;6854;48.096;11.278;2022-09-09T02:43:58;4.43;;;2.60;;
13564;SDS011;6854;48.096;11.278;2022-09-09T02:46:32;7.43;;;2.50;;
13564;SDS011;6854;48.096;11.278;2022-09-09T02:49:12;5.40;;;2.63;;
13564;SDS011;6854;48.096;11.278;2022-09-09T02:51:53;7.80;;;3.17;;
13564;SDS011;6854;48.096;11.278;2022-09-09T02:54:28;7.63;;;3.87;;
13564;SDS011;6854;48.096;11.278;2022-09-09T02:56:55;4.90;;;2.87;;
13564;SDS011;6854;48.096;11.278;2022-09-09T02:59:26;16.63;;;2.90;;
13564;SDS011;6854;48.096;11.278;2022-09-09T03:01:52;7.47;;;3.10;;
13564;SDS011;6854;48.096;11.278;2022-09-09T03:04:18;10.20;;;3.40;;
13564;SDS011;6854;48.096;11.278;2022-09-09T03:06:45;14.10;;;3.70;;
13564;SDS011;6854;48.096;11.278;2022-09-09T03:09:11;6.07;;;3.87;;
13564;SDS011;6854;48.096;11.278;2022-09-09T03:11:38;5.60;;;3.40;;
13564;SDS011;6854;48.096;11.278;2022-09-09T03:14:04;9.40;;;4.47;;
13564;SDS011;6854;48.096;11.278;2022-09-09T03:16:30;10.30;;;4.50;;
13564;SDS011;6854;48.096;11.278;2022-09-09T03:18:58;6.93;;;3.93;;
13564;SDS011;6854;48.096;11.278;2022-09-09T03:21:24;11.17;;;5.27;;
13564;SDS011;6854;48.096;11.278;2022-09-09T03:23:49;10.97;;;5.27;;
13564;SDS011;6854;48.096;11.278;2022-09-09T03:26:15;18.23;;;5.77;;
13564;SDS011;6854;48.096;11.278;2022-09-09T03:28:42;15.07;;;6.50;;
13564;SDS011;6854;48.096;11.278;2022-09-09T03:31:09;13.20;;;6.27;;
13564;SDS011;6854;48.096;11.278;2022-09-09T03:33:38;12.50;;;7.93;;
13564;SDS011;6854;48.096;11.278;2022-09-09T03:36:06;12.80;;;6.50;;
13564;SDS011;6854;48.096;11.278;2022-09-09T03:38:33;11.03;;;6.30;;
13564;SDS011;6854;48.096;11.278;2022-09-09T03:40:59;17.80;;;8.53;;
13564;SDS011;6854;48.096;11.278;2022-09-09T03:43:26;14.70;;;7.50;;
13564;SDS011;6854;48.096;11.278;2022-09-09T03:45:52;18.13;;;7.87;;
13564;SDS011;6854;48.096;11.278;2022-09-09T03:48:21;17.80;;;7.93;;
13564;SDS011;6854;48.096;11.278;2022-09-09T03:50:48;14.90;;;8.17;;
13564;SDS011;6854;48.096;11.278;2022-09-09T03:53:15;16.53;;;8.23;;
13564;SDS011;6854;48.096;11.278;2022-09-09T03:55:47;23.73;;;8.70;;
13564;SDS011;6854;48.096;11.278;2022-09-09T03:58:15;20.53;;;8.43;;
13564;SDS011;6854;48.096;11.278;2022-09-09T04:00:43;18.17;;;8.83;;
13564;SDS011;6854;48.096;11.278;2022-09-09T04:03:10;18.27;;;9.27;;
13564;SDS011;6854;48.096;11.278;2022-09-09T04:05:36;17.63;;;9.07;;
13564;SDS011;6854;48.096;11.278;2022-09-09T04:08:05;20.27;;;9.13;;
13564;SDS011;6854;48.096;11.278;2022-09-09T04:10:31;19.17;;;9.93;;
13564;SDS011;6854;48.096;11.278;2022-09-09T04:12:56;24.40;;;10.23;;
13564;SDS011;6854;48.096;11.278;2022-09-09T04:15:23;19.50;;;9.33;;
13564;SDS011;6854;48.096;11.278;2022-09-09T04:17:49;17.20;;;9.07;;
13564;SDS011;6854;48.096;11.278;2022-09-09T04:20:16;20.97;;;9.17;;
13564;SDS011;6854;48.096;11.278;2022-09-09T04:22:42;18.37;;;9.00;;
13564;SDS011;6854;48.096;11.278;2022-09-09T04:25:08;20.43;;;8.77;;
13564;SDS011;6854;48.096;11.278;2022-09-09T04:27:34;20.70;;;9.63;;
13564;SDS011;6854;48.096;11.278;2022-09-09T04:30:00;22.67;;;9.70;;
13564;SDS011;6854;48.096;11.278;2022-09-09T04:32:26;17.90;;;8.43;;
13564;SDS011;6854;48.096;11.278;2022-09-09T04:34:52;16.90;;;8.00;;
13564;SDS011;6854;48.096;11.278;2022-09-09T04:37:18;18.77;;;8.43;;
13564;SDS011;6854;48.096;11.278;2022-09-09T04:39:44;12.00;;;7.83;;
13564;SDS011;6854;48.096;11.278;2022-09-09T04:42:10;22.83;;;9.17;;
13564;SDS011;6854;48.096;11.278;2022-09-09T04:44:36;17.00;;;8.80;;
13564;SDS011;6854;48.096;11.278;2022-09-09T04:47:02;14.53;;;8.63;;
13564;SDS011;6854;48.096;11.278;2022-09-09T04:49:28;25.50;;;9.80;;
13564;SDS011;6854;48.096;11.278;2022-09-09T04:51:55;18.27;;;9.60;;
13564;SDS011;6854;48.096;11.278;2022-09-09T04:54:21;17.53;;;9.07;;
13564;SDS011;6854;48.096;11.278;2022-09-09T04:56:49;33.00;;;8.40;;
13564;SDS011;6854;48.096;11.278;2022-09-09T04:59:15;14.00;;;8.50;;
13564;SDS011;6854;48.096;11.278;2022-09-09T05:01:41;29.23;;;9.87;;
13564;SDS011;6854;48.096;11.278;2022-09-09T05:04:07;21.97;;;9.83;;
13564;SDS011;6854;48.096;11.278;2022-09-09T05:06:34;17.00;;;9.30;;
13564;SDS011;6854;48.096;11.278;2022-09-09T05:09:01;18.37;;;9.70;;
13564;SDS011;6854;48.096;11.278;2022-09-09T05:11:42;18.33;;;9.30;;
13564;SDS011;6854;48.096;11.278;2022-09-09T05:14:08;22.57;;;10.57;;
13564;SDS011;6854;48.096;11.278;2022-09-09T05:16:36;24.13;;;9.80;;
13564;SDS011;6854;48.096;11.278;2022-09-09T05:19:02;23.50;;;11.40;;
13564;SDS011;6854;48.096;11.278;2022-09-09T05:21:28;25.63;;;11.30;;
13564;SDS011;6854;48.096;11.278;2022-09-09T05:23:55;23.50;;;11.00;;
13564;SDS011;6854;48.096;11.278;2022-09-09T05:26:24;20.60;;;10.17;;
13564;SDS011;6854;48.096;11.278;2022-09-09T05:28:51;15.37;;;8.97;;
13564;SDS011;6854;48.096;11.278;2022-09-09T05:31:17;16.30;;;9.20;;
13564;SDS011;6854;48.096;11.278;2022-09-09T05:33:43;14.13;;;9.40;;
13564;SDS011;6854;48.096;11.278;2022-09-09T05:36:14;17.00;;;8.77;;
13564;SDS011;6854;48.096;11.278;2022-09-09T05:38:41;15.37;;;8.17;;
13564;SDS011;6854;48.096;11.278;2022-09-09T05:41:08;15.90;;;8.40;;
13564;SDS011;6854;48.096;11.278;2022-09-09T05:43:35;14.33;;;7.77;;
13564;SDS011;6854;48.096;11.278;2022-09-09T05:46:04;20.43;;;7.80;;
13564;SDS011;6854;48.096;11.278;2022-09-09T05:48:34;16.13;;;7.80;;
13564;SDS011;6854;48.096;11.278;2022-09-09T05:51:00;13.80;;;8.13;;
13564;SDS011;6854;48.096;11.278;2022-09-09T05:53:27;21.50;;;7.00;;
13564;SDS011;6854;48.096;11.278;2022-09-09T05:56:00;10.40;;;6.57;;
13564;SDS011;6854;48.096;11.278;2022-09-09T05:58:28;10.63;;;6.57;;
13564;SDS011;6854;48.096;11.278;2022-09-09T06:01:00;13.97;;;6.60;;
13564;SDS011;6854;48.096;11.278;2022-09-09T06:03:26;9.97;;;5.87;;
13564;SDS011;6854;48.096;11.278;2022-09-09T06:05:59;10.57;;;5.67;;
13564;SDS011;6854;48.096;11.278;2022-09-09T06:08:25;7.20;;;5.40;;
13564;SDS011;6854;48.096;11.278;2022-09-09T06:10:51;6.67;;;3.87;;
13564;SDS011;6854;48.096;11.278;2022-09-09T06:13:17;5.03;;;3.27;;
13564;SDS011;6854;48.096;11.278;2022-09-09T06:15:50;3.80;;;2.43;;
13564;SDS011;6854;48.096;11.278;2022-09-09T06:18:17;2.73;;;2.50;;
13564;SDS011;6854;48.096;11.278;2022-09-09T06:20:52;3.47;;;2.27;;
13564;SDS011;6854;48.096;11.278;2022-09-09T06:23:22;2.90;;;1.77;;
13564;SDS011;6854;48.096;11.278;2022-09-09T06:25:48;6.30;;;1.70;;
13564;SDS011;6854;48.096;11.278;2022-09-09T06:28:14;3.37;;;1.60;;
13564;SDS011;6854;48.096;11.278;2022-09-09T06:30:46;4.30;;;1.40;;
13564;SDS011;6854;48.096;11.278;2022-09-09T06:33:13;3.80;;;2.00;;
13564;SDS011;6854;48.096;11.278;2022-09-09T06:35:51;2.53;;;1.60;;
13564;SDS011;6854;48.096;11.278;2022-09-09T06:38:18;1.30;;;1.20;;
13564;SDS011;6854;48.096;11.278;2022-09-09T06:40:50;2.10;;;1.53;;
13564;SDS011;6854;48.096;11.278;2022-09-09T06:43:23;2.87;;;1.63;;
13564;SDS011;6854;48.096;11.278;2022-09-09T06:45:57;2.80;;;1.20;;
13564;SDS011;6854;48.096;11.278;2022-09-09T06:48:23;3.10;;;1.33;;
13564;SDS011;6854;48.096;11.278;2022-09-09T06:53:41;2.73;;;1.20;;
13564;SDS011;6854;48.096;11.278;2022-09-09T06:56:17;2.70;;;1.93;;
13564;SDS011;6854;48.096;11.278;2022-09-09T06:58:48;1.50;;;1.10;;
13564;SDS011;6854;48.096;11.278;2022-09-09T07:01:42;1.63;;;0.90;;
13564;SDS011;6854;48.096;11.278;2022-09-09T07:04:07;1.87;;;1.00;;
13564;SDS011;6854;48.096;11.278;2022-09-09T07:06:38;2.60;;;1.17;;
13564;SDS011;6854;48.096;11.278;2022-09-09T07:09:07;3.70;;;1.07;;
13564;SDS011;6854;48.096;11.278;2022-09-09T07:27:20;4.17;;;1.27;;
13564;SDS011;6854;48.096;11.278;2022-09-09T08:00:37;13.43;;;1.97;;
13564;SDS011;6854;48.096;11.278;2022-09-09T08:06:54;4.00;;;1.17;;
